sensor_id;sensor_type;location;lat;lon;timestamp;temperature;humidity
6174;DHT22;3120;48.796;9.796;2022-11-25T00:01:09;1.90;99.90
6174;DHT22;3120;48.796;9.796;2022-11-25T00:03:36;2.00;99.90
6174;DHT22;3120;48.796;9.796;2022-11-25T00:06:12;2.00;99.90
6174;DHT22;3120;48.796;9.796;2022-11-25T00:08:39;1.90;99.90
6174;DHT22;3120;48.796;9.796;2022-11-25T00:11:05;1.90;99.90
6174;DHT22;3120;48.796;9.796;2022-11-25T00:13:31;2.00;99.90
6174;DHT22;3120;48.796;9.796;2022-11-25T00:16:01;1.90;99.90
6174;DHT22;3120;48.796;9.796;2022-11-25T00:18:28;1.90;99.90
6174;DHT22;3120;48.796;9.796;2022-11-25T00:20:53;1.90;99.90
6174;DHT22;3120;48.796;9.796;2022-11-25T00:23:19;1.80;99.90
6174;DHT22;3120;48.796;9.796;2022-11-25T00:25:44;1.80;99.90
6174;DHT22;3120;48.796;9.796;2022-11-25T00:28:10;1.70;99.90
6174;DHT22;3120;48.796;9.796;2022-11-25T00:30:35;1.60;99.90
6174;DHT22;3120;48.796;9.796;2022-11-25T00:33:01;1.60;99.90
6174;DHT22;3120;48.796;9.796;2022-11-25T00:35:27;3.40;99.90
6174;DHT22;3120;48.796;9.796;2022-11-25T00:37:52;1.60;99.90
6174;DHT22;3120;48.796;9.796;2022-11-25T00:40:18;1.50;99.90
6174;DHT22;3120;48.796;9.796;2022-11-25T00:42:44;2.80;99.90
6174;DHT22;3120;48.796;9.796;2022-11-25T00:45:47;1.50;99.90
6174;DHT22;3120;48.796;9.796;2022-11-25T00:48:13;1.40;99.90
6174;DHT22;3120;48.796;9.796;2022-11-25T00:50:38;1.40;99.90
6174;DHT22;3120;48.796;9.796;2022-11-25T00:53:04;1.30;99.90
6174;DHT22;3120;48.796;9.796;2022-11-25T00:55:29;1.40;99.90
6174;DHT22;3120;48.796;9.796;2022-11-25T00:58:15;1.40;99.90
6174;DHT22;3120;48.796;9.796;2022-11-25T01:00:41;1.40;99.90
6174;DHT22;3120;48.796;9.796;2022-11-25T01:03:06;1.40;99.90
6174;DHT22;3120;48.796;9.796;2022-11-25T01:05:32;1.30;99.90
6174;DHT22;3120;48.796;9.796;2022-11-25T01:07:57;1.40;99.90
6174;DHT22;3120;48.796;9.796;2022-11-25T01:10:23;1.40;99.90
6174;DHT22;3120;48.796;9.796;2022-11-25T01:12:48;1.50;99.90
6174;DHT22;3120;48.796;9.796;2022-11-25T01:15:14;1.40;99.90
6174;DHT22;3120;48.796;9.796;2022-11-25T01:17:39;1.30;99.90
6174;DHT22;3120;48.796;9.796;2022-11-25T01:20:05;1.30;99.90
6174;DHT22;3120;48.796;9.796;2022-11-25T01:22:31;1.20;99.90
6174;DHT22;3120;48.796;9.796;2022-11-25T01:24:57;1.30;99.90
6174;DHT22;3120;48.796;9.796;2022-11-25T01:27:22;1.80;99.90
6174;DHT22;3120;48.796;9.796;2022-11-25T01:29:48;1.30;99.90
6174;DHT22;3120;48.796;9.796;2022-11-25T01:32:13;1.30;99.90
6174;DHT22;3120;48.796;9.796;2022-11-25T01:34:39;1.30;99.90
6174;DHT22;3120;48.796;9.796;2022-11-25T01:37:04;1.30;99.90
6174;DHT22;3120;48.796;9.796;2022-11-25T01:39:30;1.40;99.90
6174;DHT22;3120;48.796;9.796;2022-11-25T01:41:56;1.40;99.90
6174;DHT22;3120;48.796;9.796;2022-11-25T01:44:25;1.30;99.90
6174;DHT22;3120;48.796;9.796;2022-11-25T01:49:43;1.40;99.90
6174;DHT22;3120;48.796;9.796;2022-11-25T01:52:17;1.40;99.90
6174;DHT22;3120;48.796;9.796;2022-11-25T01:54:52;1.40;99.90
6174;DHT22;3120;48.796;9.796;2022-11-25T01:57:25;1.40;99.90
6174;DHT22;3120;48.796;9.796;2022-11-25T01:59:55;1.40;99.90
6174;DHT22;3120;48.796;9.796;2022-11-25T02:02:22;1.40;99.90
6174;DHT22;3120;48.796;9.796;2022-11-25T02:04:48;1.50;99.90
6174;DHT22;3120;48.796;9.796;2022-11-25T02:07:29;1.40;99.90
6174;DHT22;3120;48.796;9.796;2022-11-25T02:09:56;1.40;99.90
6174;DHT22;3120;48.796;9.796;2022-11-25T02:12:23;1.40;99.90
6174;DHT22;3120;48.796;9.796;2022-11-25T02:14:50;1.40;99.90
6174;DHT22;3120;48.796;9.796;2022-11-25T02:17:21;1.40;99.90
6174;DHT22;3120;48.796;9.796;2022-11-25T02:19:59;1.30;99.90
6174;DHT22;3120;48.796;9.796;2022-11-25T02:23:09;1.30;99.90
6174;DHT22;3120;48.796;9.796;2022-11-25T02:25:34;1.20;99.90
6174;DHT22;3120;48.796;9.796;2022-11-25T02:28:20;1.20;99.90
6174;DHT22;3120;48.796;9.796;2022-11-25T02:30:47;1.20;99.90
6174;DHT22;3120;48.796;9.796;2022-11-25T02:33:14;1.20;99.90
6174;DHT22;3120;48.796;9.796;2022-11-25T02:36:03;1.20;99.90
6174;DHT22;3120;48.796;9.796;2022-11-25T02:38:52;1.20;99.90
6174;DHT22;3120;48.796;9.796;2022-11-25T02:41:41;1.10;99.90
6174;DHT22;3120;48.796;9.796;2022-11-25T02:44:08;1.00;99.90
6174;DHT22;3120;48.796;9.796;2022-11-25T02:46:34;1.00;99.90
6174;DHT22;3120;48.796;9.796;2022-11-25T02:48:59;0.90;99.90
6174;DHT22;3120;48.796;9.796;2022-11-25T02:51:27;0.90;99.90
6174;DHT22;3120;48.796;9.796;2022-11-25T02:53:53;0.80;99.90
6174;DHT22;3120;48.796;9.796;2022-11-25T02:56:21;0.80;99.90
6174;DHT22;3120;48.796;9.796;2022-11-25T02:58:47;0.90;99.90
6174;DHT22;3120;48.796;9.796;2022-11-25T03:01:12;0.90;99.90
6174;DHT22;3120;48.796;9.796;2022-11-25T03:03:38;1.00;99.90
6174;DHT22;3120;48.796;9.796;2022-11-25T03:06:04;0.90;99.90
6174;DHT22;3120;48.796;9.796;2022-11-25T03:08:30;0.90;99.90
6174;DHT22;3120;48.796;9.796;2022-11-25T03:10:55;1.60;99.90
6174;DHT22;3120;48.796;9.796;2022-11-25T03:13:26;0.90;99.90
6174;DHT22;3120;48.796;9.796;2022-11-25T03:15:51;0.90;99.90
6174;DHT22;3120;48.796;9.796;2022-11-25T03:18:17;0.90;99.90
6174;DHT22;3120;48.796;9.796;2022-11-25T03:20:43;0.80;99.90
6174;DHT22;3120;48.796;9.796;2022-11-25T03:23:08;2.00;99.90
6174;DHT22;3120;48.796;9.796;2022-11-25T03:25:35;0.90;99.90
6174;DHT22;3120;48.796;9.796;2022-11-25T03:28:01;0.80;99.90
6174;DHT22;3120;48.796;9.796;2022-11-25T03:30:27;0.90;99.90
6174;DHT22;3120;48.796;9.796;2022-11-25T03:32:53;0.90;99.90
6174;DHT22;3120;48.796;9.796;2022-11-25T03:35:19;0.90;99.90
6174;DHT22;3120;48.796;9.796;2022-11-25T03:37:46;0.90;99.90
6174;DHT22;3120;48.796;9.796;2022-11-25T03:40:12;1.00;99.90
6174;DHT22;3120;48.796;9.796;2022-11-25T03:42:39;0.90;99.90
6174;DHT22;3120;48.796;9.796;2022-11-25T03:45:05;0.90;99.90
6174;DHT22;3120;48.796;9.796;2022-11-25T03:47:31;0.90;99.90
6174;DHT22;3120;48.796;9.796;2022-11-25T03:49:56;0.90;99.90
6174;DHT22;3120;48.796;9.796;2022-11-25T03:52:22;1.00;99.90
6174;DHT22;3120;48.796;9.796;2022-11-25T03:54:48;1.00;99.90
6174;DHT22;3120;48.796;9.796;2022-11-25T03:57:13;1.00;99.90
6174;DHT22;3120;48.796;9.796;2022-11-25T03:59:39;0.90;99.90
6174;DHT22;3120;48.796;9.796;2022-11-25T04:02:05;0.80;99.90
6174;DHT22;3120;48.796;9.796;2022-11-25T04:04:30;0.80;99.90
6174;DHT22;3120;48.796;9.796;2022-11-25T04:06:56;0.70;99.90
6174;DHT22;3120;48.796;9.796;2022-11-25T04:09:22;0.80;99.90
6174;DHT22;3120;48.796;9.796;2022-11-25T04:11:47;0.70;99.90
6174;DHT22;3120;48.796;9.796;2022-11-25T04:14:32;0.70;99.90
6174;DHT22;3120;48.796;9.796;2022-11-25T04:16:58;0.70;99.90
6174;DHT22;3120;48.796;9.796;2022-11-25T04:19:24;0.70;99.90
6174;DHT22;3120;48.796;9.796;2022-11-25T04:21:49;0.70;99.90
6174;DHT22;3120;48.796;9.796;2022-11-25T04:24:15;0.70;99.90
6174;DHT22;3120;48.796;9.796;2022-11-25T04:26:40;0.70;99.90
6174;DHT22;3120;48.796;9.796;2022-11-25T04:29:06;0.70;99.90
6174;DHT22;3120;48.796;9.796;2022-11-25T04:31:32;0.70;99.90
6174;DHT22;3120;48.796;9.796;2022-11-25T04:33:57;0.70;99.90
6174;DHT22;3120;48.796;9.796;2022-11-25T04:36:23;0.70;99.90
6174;DHT22;3120;48.796;9.796;2022-11-25T04:38:49;0.70;99.90
6174;DHT22;3120;48.796;9.796;2022-11-25T04:41:15;0.80;99.90
6174;DHT22;3120;48.796;9.796;2022-11-25T04:43:40;0.80;99.90
6174;DHT22;3120;48.796;9.796;2022-11-25T04:46:06;0.70;99.90
6174;DHT22;3120;48.796;9.796;2022-11-25T04:48:32;0.80;99.90
6174;DHT22;3120;48.796;9.796;2022-11-25T04:50:57;0.90;99.90
6174;DHT22;3120;48.796;9.796;2022-11-25T04:53:23;0.90;99.90
6174;DHT22;3120;48.796;9.796;2022-11-25T04:55:48;0.90;99.90
6174;DHT22;3120;48.796;9.796;2022-11-25T04:58:14;0.90;99.90
6174;DHT22;3120;48.796;9.796;2022-11-25T05:01:00;1.00;99.90
6174;DHT22;3120;48.796;9.796;2022-11-25T05:03:26;1.00;99.90
6174;DHT22;3120;48.796;9.796;2022-11-25T05:05:51;1.10;99.90
6174;DHT22;3120;48.796;9.796;2022-11-25T05:08:17;1.10;99.90
6174;DHT22;3120;48.796;9.796;2022-11-25T05:10:42;1.10;99.90
6174;DHT22;3120;48.796;9.796;2022-11-25T05:13:08;1.10;99.90
6174;DHT22;3120;48.796;9.796;2022-11-25T05:15:33;1.10;99.90
6174;DHT22;3120;48.796;9.796;2022-11-25T05:17:59;1.10;99.90
6174;DHT22;3120;48.796;9.796;2022-11-25T05:20:24;1.20;99.90
6174;DHT22;3120;48.796;9.796;2022-11-25T05:22:50;2.60;99.90
6174;DHT22;3120;48.796;9.796;2022-11-25T05:25:15;1.10;99.90
6174;DHT22;3120;48.796;9.796;2022-11-25T05:27:41;3.20;99.90
6174;DHT22;3120;48.796;9.796;2022-11-25T05:30:07;1.10;99.90
6174;DHT22;3120;48.796;9.796;2022-11-25T05:32:33;1.10;99.90
6174;DHT22;3120;48.796;9.796;2022-11-25T05:34:58;1.10;99.90
6174;DHT22;3120;48.796;9.796;2022-11-25T05:37:24;1.10;99.90
6174;DHT22;3120;48.796;9.796;2022-11-25T05:39:50;1.20;99.90
6174;DHT22;3120;48.796;9.796;2022-11-25T05:45:11;1.10;99.90
6174;DHT22;3120;48.796;9.796;2022-11-25T05:47:36;1.10;99.90
6174;DHT22;3120;48.796;9.796;2022-11-25T05:50:02;1.10;99.90
6174;DHT22;3120;48.796;9.796;2022-11-25T05:52:28;1.10;99.90
6174;DHT22;3120;48.796;9.796;2022-11-25T05:54:53;1.10;99.90
6174;DHT22;3120;48.796;9.796;2022-11-25T05:57:19;0.70;99.90
6174;DHT22;3120;48.796;9.796;2022-11-25T05:59:44;1.00;99.90
6174;DHT22;3120;48.796;9.796;2022-11-25T06:02:10;1.00;99.90
6174;DHT22;3120;48.796;9.796;2022-11-25T06:04:36;1.00;99.90
6174;DHT22;3120;48.796;9.796;2022-11-25T06:07:01;1.00;99.90
6174;DHT22;3120;48.796;9.796;2022-11-25T06:09:27;1.00;99.90
6174;DHT22;3120;48.796;9.796;2022-11-25T06:11:53;0.90;99.90
6174;DHT22;3120;48.796;9.796;2022-11-25T06:14:18;0.80;99.90
6174;DHT22;3120;48.796;9.796;2022-11-25T06:16:44;0.80;99.90
6174;DHT22;3120;48.796;9.796;2022-11-25T06:19:09;0.80;99.90
6174;DHT22;3120;48.796;9.796;2022-11-25T06:21:36;0.80;99.90
6174;DHT22;3120;48.796;9.796;2022-11-25T06:24:01;0.90;99.90
6174;DHT22;3120;48.796;9.796;2022-11-25T06:26:27;0.90;99.90
6174;DHT22;3120;48.796;9.796;2022-11-25T06:28:54;3.00;99.90
6174;DHT22;3120;48.796;9.796;2022-11-25T06:31:22;0.70;99.90
6174;DHT22;3120;48.796;9.796;2022-11-25T06:33:50;0.90;99.90
6174;DHT22;3120;48.796;9.796;2022-11-25T06:36:17;0.90;99.90
6174;DHT22;3120;48.796;9.796;2022-11-25T06:38:49;0.90;99.90
6174;DHT22;3120;48.796;9.796;2022-11-25T06:41:16;1.00;99.90
6174;DHT22;3120;48.796;9.796;2022-11-25T06:43:42;1.00;99.90
6174;DHT22;3120;48.796;9.796;2022-11-25T06:46:10;1.00;99.90
6174;DHT22;3120;48.796;9.796;2022-11-25T06:48:37;1.00;99.90
6174;DHT22;3120;48.796;9.796;2022-11-25T06:51:05;1.10;99.90
6174;DHT22;3120;48.796;9.796;2022-11-25T06:53:33;1.10;99.90
6174;DHT22;3120;48.796;9.796;2022-11-25T06:56:14;1.20;99.90
6174;DHT22;3120;48.796;9.796;2022-11-25T06:58:42;1.20;99.90
6174;DHT22;3120;48.796;9.796;2022-11-25T07:01:16;1.20;99.90
6174;DHT22;3120;48.796;9.796;2022-11-25T07:03:43;1.20;99.90
6174;DHT22;3120;48.796;9.796;2022-11-25T07:06:11;1.30;99.90
6174;DHT22;3120;48.796;9.796;2022-11-25T07:08:36;1.30;99.90
6174;DHT22;3120;48.796;9.796;2022-11-25T07:11:07;1.40;99.90
6174;DHT22;3120;48.796;9.796;2022-11-25T07:13:34;1.40;99.90
6174;DHT22;3120;48.796;9.796;2022-11-25T07:16:04;1.50;99.90
6174;DHT22;3120;48.796;9.796;2022-11-25T07:18:35;1.40;99.90
6174;DHT22;3120;48.796;9.796;2022-11-25T07:21:13;1.40;99.90
6174;DHT22;3120;48.796;9.796;2022-11-25T07:23:41;1.50;99.90
6174;DHT22;3120;48.796;9.796;2022-11-25T07:26:12;1.50;99.90
6174;DHT22;3120;48.796;9.796;2022-11-25T07:28:38;1.50;99.90
6174;DHT22;3120;48.796;9.796;2022-11-25T07:31:09;1.50;99.90
6174;DHT22;3120;48.796;9.796;2022-11-25T07:33:37;1.60;99.90
6174;DHT22;3120;48.796;9.796;2022-11-25T07:36:05;1.60;99.90
6174;DHT22;3120;48.796;9.796;2022-11-25T07:38:32;1.70;99.90
6174;DHT22;3120;48.796;9.796;2022-11-25T07:41:10;1.70;99.90
6174;DHT22;3120;48.796;9.796;2022-11-25T07:43:37;1.90;99.90
6174;DHT22;3120;48.796;9.796;2022-11-25T07:46:22;1.90;99.90
6174;DHT22;3120;48.796;9.796;2022-11-25T07:48:48;2.00;99.90
6174;DHT22;3120;48.796;9.796;2022-11-25T07:51:22;1.90;99.90
6174;DHT22;3120;48.796;9.796;2022-11-25T07:53:49;1.90;99.90
6174;DHT22;3120;48.796;9.796;2022-11-25T07:56:16;1.90;99.90
6174;DHT22;3120;48.796;9.796;2022-11-25T07:58:41;1.80;99.90
6174;DHT22;3120;48.796;9.796;2022-11-25T08:01:09;1.80;99.90
6174;DHT22;3120;48.796;9.796;2022-11-25T08:03:36;1.80;99.90
6174;DHT22;3120;48.796;9.796;2022-11-25T08:06:02;1.80;99.90
6174;DHT22;3120;48.796;9.796;2022-11-25T08:08:28;1.80;99.90
6174;DHT22;3120;48.796;9.796;2022-11-25T08:10:54;1.90;99.90
6174;DHT22;3120;48.796;9.796;2022-11-25T08:13:21;2.00;99.90
6174;DHT22;3120;48.796;9.796;2022-11-25T08:15:46;2.10;99.90
6174;DHT22;3120;48.796;9.796;2022-11-25T08:18:12;2.20;99.90
6174;DHT22;3120;48.796;9.796;2022-11-25T08:20:38;2.40;99.90
6174;DHT22;3120;48.796;9.796;2022-11-25T08:23:03;2.40;99.90
6174;DHT22;3120;48.796;9.796;2022-11-25T08:25:29;2.50;99.90
6174;DHT22;3120;48.796;9.796;2022-11-25T08:27:57;2.60;99.90
6174;DHT22;3120;48.796;9.796;2022-11-25T08:30:26;2.50;99.90
6174;DHT22;3120;48.796;9.796;2022-11-25T08:32:52;2.60;99.90
6174;DHT22;3120;48.796;9.796;2022-11-25T08:35:18;2.80;99.90
6174;DHT22;3120;48.796;9.796;2022-11-25T08:37:44;2.80;99.90
6174;DHT22;3120;48.796;9.796;2022-11-25T08:40:10;3.00;99.90
6174;DHT22;3120;48.796;9.796;2022-11-25T08:42:37;3.10;99.90
6174;DHT22;3120;48.796;9.796;2022-11-25T08:45:03;3.30;99.90
6174;DHT22;3120;48.796;9.796;2022-11-25T08:47:29;3.30;99.90
6174;DHT22;3120;48.796;9.796;2022-11-25T08:49:55;3.30;99.90
6174;DHT22;3120;48.796;9.796;2022-11-25T08:52:21;3.40;99.90
6174;DHT22;3120;48.796;9.796;2022-11-25T08:54:47;3.40;99.90
6174;DHT22;3120;48.796;9.796;2022-11-25T08:57:12;3.50;99.90
6174;DHT22;3120;48.796;9.796;2022-11-25T08:59:38;3.50;99.90
6174;DHT22;3120;48.796;9.796;2022-11-25T09:02:05;3.50;99.90
6174;DHT22;3120;48.796;9.796;2022-11-25T09:04:36;3.70;99.90
6174;DHT22;3120;48.796;9.796;2022-11-25T09:07:03;3.80;99.90
6174;DHT22;3120;48.796;9.796;2022-11-25T09:09:29;4.00;99.90
6174;DHT22;3120;48.796;9.796;2022-11-25T09:11:55;4.00;99.90
6174;DHT22;3120;48.796;9.796;2022-11-25T09:14:21;4.20;99.90
6174;DHT22;3120;48.796;9.796;2022-11-25T09:16:47;4.30;99.90
6174;DHT22;3120;48.796;9.796;2022-11-25T09:19:14;4.40;99.90
6174;DHT22;3120;48.796;9.796;2022-11-25T09:21:41;4.30;99.90
6174;DHT22;3120;48.796;9.796;2022-11-25T09:24:08;4.40;99.90
6174;DHT22;3120;48.796;9.796;2022-11-25T09:26:34;4.40;99.90
6174;DHT22;3120;48.796;9.796;2022-11-25T09:29:03;4.60;99.90
6174;DHT22;3120;48.796;9.796;2022-11-25T09:31:28;4.50;99.90
6174;DHT22;3120;48.796;9.796;2022-11-25T09:33:55;4.50;99.90
6174;DHT22;3120;48.796;9.796;2022-11-25T09:36:20;4.60;99.90
6174;DHT22;3120;48.796;9.796;2022-11-25T09:38:48;4.70;99.90
6174;DHT22;3120;48.796;9.796;2022-11-25T09:48:16;4.90;99.90
6174;DHT22;3120;48.796;9.796;2022-11-25T09:50:15;5.00;99.90
6174;DHT22;3120;48.796;9.796;2022-11-25T09:55:32;5.30;99.90
6174;DHT22;3120;48.796;9.796;2022-11-25T10:00:43;5.30;99.90
6174;DHT22;3120;48.796;9.796;2022-11-25T10:06:18;5.60;99.90
6174;DHT22;3120;48.796;9.796;2022-11-25T10:08:44;5.70;99.90
6174;DHT22;3120;48.796;9.796;2022-11-25T10:11:25;5.70;99.90
6174;DHT22;3120;48.796;9.796;2022-11-25T10:14:02;5.80;99.90
6174;DHT22;3120;48.796;9.796;2022-11-25T10:21:47;6.20;99.90
6174;DHT22;3120;48.796;9.796;2022-11-25T10:24:15;6.40;99.90
6174;DHT22;3120;48.796;9.796;2022-11-25T10:26:44;6.50;99.90
6174;DHT22;3120;48.796;9.796;2022-11-25T10:29:27;6.80;99.90
6174;DHT22;3120;48.796;9.796;2022-11-25T10:32:33;7.10;99.90
6174;DHT22;3120;48.796;9.796;2022-11-25T10:35:05;7.10;99.90
6174;DHT22;3120;48.796;9.796;2022-11-25T10:37:39;7.10;99.90
6174;DHT22;3120;48.796;9.796;2022-11-25T10:40:13;7.40;99.90
6174;DHT22;3120;48.796;9.796;2022-11-25T10:42:39;7.50;99.90
6174;DHT22;3120;48.796;9.796;2022-11-25T10:45:07;8.50;99.90
6174;DHT22;3120;48.796;9.796;2022-11-25T10:47:44;7.10;99.90
6174;DHT22;3120;48.796;9.796;2022-11-25T10:50:22;8.30;99.90
6174;DHT22;3120;48.796;9.796;2022-11-25T10:55:21;9.50;99.90
6174;DHT22;3120;48.796;9.796;2022-11-25T10:57:51;10.00;99.90
6174;DHT22;3120;48.796;9.796;2022-11-25T11:00:33;9.60;99.90
6174;DHT22;3120;48.796;9.796;2022-11-25T11:06:03;7.80;99.90
6174;DHT22;3120;48.796;9.796;2022-11-25T11:08:38;7.70;99.90
6174;DHT22;3120;48.796;9.796;2022-11-25T11:11:17;7.70;99.90
6174;DHT22;3120;48.796;9.796;2022-11-25T11:14:16;7.60;99.90
6174;DHT22;3120;48.796;9.796;2022-11-25T11:16:55;7.60;99.90
6174;DHT22;3120;48.796;9.796;2022-11-25T11:19:28;7.50;99.90
6174;DHT22;3120;48.796;9.796;2022-11-25T11:21:56;7.60;99.90
6174;DHT22;3120;48.796;9.796;2022-11-25T11:24:30;8.40;99.90
6174;DHT22;3120;48.796;9.796;2022-11-25T11:27:18;7.80;99.90
6174;DHT22;3120;48.796;9.796;2022-11-25T11:29:44;7.90;99.90
6174;DHT22;3120;48.796;9.796;2022-11-25T11:32:22;9.40;99.90
6174;DHT22;3120;48.796;9.796;2022-11-25T11:37:34;7.90;99.90
6174;DHT22;3120;48.796;9.796;2022-11-25T11:43:36;8.00;99.90
6174;DHT22;3120;48.796;9.796;2022-11-25T11:46:31;8.00;99.90
6174;DHT22;3120;48.796;9.796;2022-11-25T11:51:42;9.40;99.90
6174;DHT22;3120;48.796;9.796;2022-11-25T11:54:42;7.80;99.90
6174;DHT22;3120;48.796;9.796;2022-11-25T11:59:55;7.90;99.90
6174;DHT22;3120;48.796;9.796;2022-11-25T12:02:31;8.80;99.90
6174;DHT22;3120;48.796;9.796;2022-11-25T12:10:26;7.80;99.90
6174;DHT22;3120;48.796;9.796;2022-11-25T12:13:04;8.90;99.90
6174;DHT22;3120;48.796;9.796;2022-11-25T12:23:59;8.00;99.90
6174;DHT22;3120;48.796;9.796;2022-11-25T12:26:54;8.00;99.90
6174;DHT22;3120;48.796;9.796;2022-11-25T12:29:38;7.90;99.90
6174;DHT22;3120;48.796;9.796;2022-11-25T12:35:11;7.80;99.90
6174;DHT22;3120;48.796;9.796;2022-11-25T12:37:57;7.80;99.90
6174;DHT22;3120;48.796;9.796;2022-11-25T12:48:39;7.90;99.90
6174;DHT22;3120;48.796;9.796;2022-11-25T13:05:02;7.60;99.90
6174;DHT22;3120;48.796;9.796;2022-11-25T13:15:47;7.70;99.90
6174;DHT22;3120;48.796;9.796;2022-11-25T13:18:18;7.80;99.90
6174;DHT22;3120;48.796;9.796;2022-11-25T13:20:52;7.90;99.90
6174;DHT22;3120;48.796;9.796;2022-11-25T13:25:45;8.00;99.90
6174;DHT22;3120;48.796;9.796;2022-11-25T13:31:18;8.10;99.90
6174;DHT22;3120;48.796;9.796;2022-11-25T13:36:24;8.10;99.90
6174;DHT22;3120;48.796;9.796;2022-11-25T13:46:48;7.90;99.90
6174;DHT22;3120;48.796;9.796;2022-11-25T13:54:53;9.10;99.90
6174;DHT22;3120;48.796;9.796;2022-11-25T13:59:55;9.20;99.90
6174;DHT22;3120;48.796;9.796;2022-11-25T14:13:32;7.80;99.90
6174;DHT22;3120;48.796;9.796;2022-11-25T14:27:02;7.90;99.90
6174;DHT22;3120;48.796;9.796;2022-11-25T14:29:35;7.90;99.90
6174;DHT22;3120;48.796;9.796;2022-11-25T14:32:07;7.80;99.90
6174;DHT22;3120;48.796;9.796;2022-11-25T14:34:43;8.20;99.90
6174;DHT22;3120;48.796;9.796;2022-11-25T14:37:21;7.90;99.90
6174;DHT22;3120;48.796;9.796;2022-11-25T14:40:10;7.90;99.90
6174;DHT22;3120;48.796;9.796;2022-11-25T14:42:46;7.90;99.90
6174;DHT22;3120;48.796;9.796;2022-11-25T14:45:22;8.00;99.90
6174;DHT22;3120;48.796;9.796;2022-11-25T14:47:48;7.90;99.90
6174;DHT22;3120;48.796;9.796;2022-11-25T14:50:15;10.20;99.90
6174;DHT22;3120;48.796;9.796;2022-11-25T14:52:41;7.90;99.90
6174;DHT22;3120;48.796;9.796;2022-11-25T14:55:14;7.90;99.90
6174;DHT22;3120;48.796;9.796;2022-11-25T14:57:47;7.90;99.90
6174;DHT22;3120;48.796;9.796;2022-11-25T15:00:16;7.80;99.90
6174;DHT22;3120;48.796;9.796;2022-11-25T15:02:59;7.80;99.90
6174;DHT22;3120;48.796;9.796;2022-11-25T15:05:35;7.70;99.90
6174;DHT22;3120;48.796;9.796;2022-11-25T15:08:14;7.50;99.90
6174;DHT22;3120;48.796;9.796;2022-11-25T15:10:41;7.50;99.90
6174;DHT22;3120;48.796;9.796;2022-11-25T15:13:12;7.50;99.90
6174;DHT22;3120;48.796;9.796;2022-11-25T15:15:44;8.40;99.90
6174;DHT22;3120;48.796;9.796;2022-11-25T15:18:19;7.40;99.90
6174;DHT22;3120;48.796;9.796;2022-11-25T15:20:57;7.40;99.90
6174;DHT22;3120;48.796;9.796;2022-11-25T15:23:30;7.40;99.90
6174;DHT22;3120;48.796;9.796;2022-11-25T15:26:02;8.70;99.90
6174;DHT22;3120;48.796;9.796;2022-11-25T15:28:36;7.90;99.90
6174;DHT22;3120;48.796;9.796;2022-11-25T15:31:14;7.40;99.90
6174;DHT22;3120;48.796;9.796;2022-11-25T15:33:41;7.40;99.90
6174;DHT22;3120;48.796;9.796;2022-11-25T15:36:07;7.40;99.90
6174;DHT22;3120;48.796;9.796;2022-11-25T15:38:42;7.40;99.90
6174;DHT22;3120;48.796;9.796;2022-11-25T15:41:37;7.40;99.90
6174;DHT22;3120;48.796;9.796;2022-11-25T15:44:05;7.40;99.90
6174;DHT22;3120;48.796;9.796;2022-11-25T15:46:33;7.40;99.90
6174;DHT22;3120;48.796;9.796;2022-11-25T15:49:03;9.80;99.90
6174;DHT22;3120;48.796;9.796;2022-11-25T15:52:12;7.40;99.90
6174;DHT22;3120;48.796;9.796;2022-11-25T15:54:43;7.40;99.90
6174;DHT22;3120;48.796;9.796;2022-11-25T15:57:42;7.50;99.90
6174;DHT22;3120;48.796;9.796;2022-11-25T16:00:16;7.50;99.90
6174;DHT22;3120;48.796;9.796;2022-11-25T16:10:32;7.40;99.90
6174;DHT22;3120;48.796;9.796;2022-11-25T16:15:48;7.40;99.90
6174;DHT22;3120;48.796;9.796;2022-11-25T16:18:16;7.40;99.90
6174;DHT22;3120;48.796;9.796;2022-11-25T16:21:05;7.40;99.90
6174;DHT22;3120;48.796;9.796;2022-11-25T16:23:37;7.50;99.90
6174;DHT22;3120;48.796;9.796;2022-11-25T16:26:15;8.90;99.90
6174;DHT22;3120;48.796;9.796;2022-11-25T16:28:48;7.40;99.90
6174;DHT22;3120;48.796;9.796;2022-11-25T16:31:15;9.50;99.90
6174;DHT22;3120;48.796;9.796;2022-11-25T16:33:41;7.40;99.90
6174;DHT22;3120;48.796;9.796;2022-11-25T16:36:07;8.10;99.90
6174;DHT22;3120;48.796;9.796;2022-11-25T16:38:33;7.40;99.90
6174;DHT22;3120;48.796;9.796;2022-11-25T16:41:18;7.40;99.90
6174;DHT22;3120;48.796;9.796;2022-11-25T16:43:46;7.30;99.90
6174;DHT22;3120;48.796;9.796;2022-11-25T16:46:16;7.20;99.90
6174;DHT22;3120;48.796;9.796;2022-11-25T16:48:42;7.20;99.90
6174;DHT22;3120;48.796;9.796;2022-11-25T16:51:16;7.20;99.90
6174;DHT22;3120;48.796;9.796;2022-11-25T16:53:43;8.90;99.90
6174;DHT22;3120;48.796;9.796;2022-11-25T16:56:22;7.40;99.90
6174;DHT22;3120;48.796;9.796;2022-11-25T16:58:48;7.30;99.90
6174;DHT22;3120;48.796;9.796;2022-11-25T17:01:16;7.30;99.90
6174;DHT22;3120;48.796;9.796;2022-11-25T17:03:42;7.80;99.90
6174;DHT22;3120;48.796;9.796;2022-11-25T17:06:17;7.20;99.90
6174;DHT22;3120;48.796;9.796;2022-11-25T17:08:43;7.20;99.90
6174;DHT22;3120;48.796;9.796;2022-11-25T17:11:25;7.20;99.90
6174;DHT22;3120;48.796;9.796;2022-11-25T17:13:52;7.20;99.90
6174;DHT22;3120;48.796;9.796;2022-11-25T17:16:24;7.50;99.90
6174;DHT22;3120;48.796;9.796;2022-11-25T17:18:51;7.10;99.90
6174;DHT22;3120;48.796;9.796;2022-11-25T17:21:17;7.10;99.90
6174;DHT22;3120;48.796;9.796;2022-11-25T17:23:44;7.20;99.90
6174;DHT22;3120;48.796;9.796;2022-11-25T17:28:54;7.60;99.90
6174;DHT22;3120;48.796;9.796;2022-11-25T17:31:50;7.60;99.90
6174;DHT22;3120;48.796;9.796;2022-11-25T17:34:16;7.20;99.90
6174;DHT22;3120;48.796;9.796;2022-11-25T17:36:43;7.20;99.90
6174;DHT22;3120;48.796;9.796;2022-11-25T17:39:15;7.20;99.90
6174;DHT22;3120;48.796;9.796;2022-11-25T17:41:46;7.20;99.90
6174;DHT22;3120;48.796;9.796;2022-11-25T17:44:45;7.20;99.90
6174;DHT22;3120;48.796;9.796;2022-11-25T17:47:23;8.00;99.90
6174;DHT22;3120;48.796;9.796;2022-11-25T17:49:48;7.20;99.90
6174;DHT22;3120;48.796;9.796;2022-11-25T17:52:14;6.90;99.90
6174;DHT22;3120;48.796;9.796;2022-11-25T17:54:43;7.10;99.90
6174;DHT22;3120;48.796;9.796;2022-11-25T17:57:14;7.10;99.90
6174;DHT22;3120;48.796;9.796;2022-11-25T17:59:42;7.10;99.90
6174;DHT22;3120;48.796;9.796;2022-11-25T18:02:19;8.80;99.90
6174;DHT22;3120;48.796;9.796;2022-11-25T18:04:48;7.10;99.90
6174;DHT22;3120;48.796;9.796;2022-11-25T18:07:14;7.10;99.90
6174;DHT22;3120;48.796;9.796;2022-11-25T18:09:43;7.10;99.90
6174;DHT22;3120;48.796;9.796;2022-11-25T18:12:17;7.10;99.90
6174;DHT22;3120;48.796;9.796;2022-11-25T18:14:43;7.10;99.90
6174;DHT22;3120;48.796;9.796;2022-11-25T18:17:13;7.10;99.90
6174;DHT22;3120;48.796;9.796;2022-11-25T18:19:41;7.50;99.90
6174;DHT22;3120;48.796;9.796;2022-11-25T18:22:32;7.70;99.90
6174;DHT22;3120;48.796;9.796;2022-11-25T18:25:00;8.10;99.90
6174;DHT22;3120;48.796;9.796;2022-11-25T18:27:26;7.00;99.90
6174;DHT22;3120;48.796;9.796;2022-11-25T18:29:53;8.00;99.90
6174;DHT22;3120;48.796;9.796;2022-11-25T18:32:20;8.70;99.90
6174;DHT22;3120;48.796;9.796;2022-11-25T18:34:47;6.80;99.90
6174;DHT22;3120;48.796;9.796;2022-11-25T18:37:13;6.80;99.90
6174;DHT22;3120;48.796;9.796;2022-11-25T18:39:39;6.80;99.90
6174;DHT22;3120;48.796;9.796;2022-11-25T18:42:05;6.80;99.90
6174;DHT22;3120;48.796;9.796;2022-11-25T18:44:33;6.80;99.90
6174;DHT22;3120;48.796;9.796;2022-11-25T18:47:12;8.50;99.90
6174;DHT22;3120;48.796;9.796;2022-11-25T18:49:38;6.70;99.90
6174;DHT22;3120;48.796;9.796;2022-11-25T18:52:03;6.70;99.90
6174;DHT22;3120;48.796;9.796;2022-11-25T18:54:29;6.70;99.90
6174;DHT22;3120;48.796;9.796;2022-11-25T18:56:55;6.70;99.90
6174;DHT22;3120;48.796;9.796;2022-11-25T18:59:28;6.80;99.90
6174;DHT22;3120;48.796;9.796;2022-11-25T19:01:54;7.40;99.90
6174;DHT22;3120;48.796;9.796;2022-11-25T19:04:19;6.70;99.90